Hlavní strana
METAR-TAF:

METAR-TAF

Letiště :

Sétif, Alžírsko

zeměpisná šířka: 36-11N, zeměpisná délka: 005-25E, výška: 1038 m

Aktuální stav počasí

Zpráva byla vytvořena před 43 minutami, v 18:00 UTC
Západojihozápadní vítr 10 kt
Teplota 10°C
Vlhkost vzduchu 62%
Tlak 1014 hPa
Viditelnost: 8000 m
Polojasno ve výšce 2600 ft

METAR: DAAS 221800Z 24010KT 8000 SCT026 10/03 Q1014

Čas: 19:43 (18:43 UTC)

Předpověď počasí

Zpráva byla vytvořena před 1 hodinou a 43 minutami, v 17:00 UTC
Předpověď platná od 22 v 18 UTC do 23 v 18 UTC
Západní vítr 12 kt
Viditelnost 10 km a více
Polojasno ve výšce 2600 ft
Pravděpodobnost 40%
od 22 v 18 UTC do 22 v 21 UTC
Skoro jasno ve výšce 2300 ft, Vertikální cumulus.
Skoro jasno ve výšce 2600 ft, Cumulonimbus.
Pravděpodobnost 30% :
Dočasný
od 22 v 20 UTC do 23 v 06 UTC
Viditelnost: 5000 m
Skoro jasno ve výšce 2300 ft, Cumulonimbus.
bouřka, slabý déšť

TAF: DAAS 221700Z 2218/2318 27012KT 9999 SCT026 PROB40 2218/2221 FEW023TCU FEW026CB PROB30 TEMPO 2220/2306 5000 -TSRA FEW023CB

Stav a předpovědi počasí z více než 4 000 letišť (zprávy METAR a TAF).

Červené a žluté tečky na mapě představují dostupné meteorologické stanice.

Když kurzor umístíte na tečku, zobrazí se název stanice.

Pak kliknutím zobrazíte stav a předpověď počasí.

Chcete-li změnit mapu, kliknutím na zelené tlačítko se znaménkem +mapu přiblížíte, kliknutím na zelené tlačítko se znaménkem – mapu oddálíte a kliknutím na zelené šipky přejdete na sousední mapy.


METAR-TAF: